createdAt,value
2023-01-09T00:00:45.919Z,5.15
2023-01-09T00:20:30.545Z,5.41
2023-01-09T00:40:30.704Z,5.4
2023-01-09T01:00:30.699Z,5.07
2023-01-09T01:20:30.650Z,5.1
2023-01-09T01:40:30.758Z,5.31
2023-01-09T02:00:30.782Z,5.28
2023-01-09T02:20:30.851Z,5.4
2023-01-09T02:40:30.953Z,5.22
2023-01-09T03:00:30.993Z,5.19
2023-01-09T03:20:30.964Z,5.82
2023-01-09T03:40:31.025Z,6.05
2023-01-09T04:00:31.966Z,6.06
2023-01-09T04:20:31.132Z,6.06
2023-01-09T04:40:31.247Z,6.05
2023-01-09T05:00:31.188Z,6.18
2023-01-09T05:20:31.223Z,6.22
2023-01-09T05:40:38.522Z,6.32
2023-01-09T06:00:31.330Z,6.32
2023-01-09T06:20:31.382Z,6.5
2023-01-09T06:40:31.441Z,6.64
2023-01-09T07:00:31.431Z,6.56
2023-01-09T07:20:31.514Z,6.33
2023-01-09T07:40:31.547Z,6.15
2023-01-09T08:20:31.664Z,6.19
2023-01-09T08:40:31.778Z,6.4
2023-01-09T09:00:31.708Z,6.31
2023-01-09T09:20:31.816Z,6.3
2023-01-09T09:40:31.839Z,6.22
2023-01-09T10:00:31.846Z,6.32
2023-01-09T10:20:31.890Z,6.61
2023-01-09T10:40:31.913Z,6.82
2023-01-09T11:00:32.008Z,6.87
2023-01-09T11:20:31.971Z,6.58
2023-01-09T11:40:32.050Z,6.55
2023-01-09T12:00:32.010Z,7.32
2023-01-09T12:20:32.135Z,6.98
2023-01-09T12:40:32.146Z,6.95
2023-01-09T13:00:32.194Z,6.96
2023-01-09T13:20:32.252Z,6.91
2023-01-09T13:40:32.253Z,6.64
2023-01-09T14:00:32.345Z,6.33
2023-01-09T14:20:32.406Z,6.28
2023-01-09T14:40:32.435Z,6.27
2023-01-09T15:00:32.468Z,6.05
2023-01-09T15:20:32.464Z,5.87
2023-01-09T15:40:32.464Z,5.75
2023-01-09T16:00:32.603Z,5.58
2023-01-09T16:20:32.628Z,5.16
2023-01-09T16:40:32.601Z,4.94
2023-01-09T17:00:32.650Z,4.86
2023-01-09T17:20:32.728Z,5.08
2023-01-09T17:40:32.796Z,4.83
2023-01-09T18:00:32.829Z,5
2023-01-09T18:20:32.831Z,5.01
2023-01-09T18:40:32.901Z,5.1
2023-01-09T19:00:32.971Z,5.2
2023-01-09T19:20:33.002Z,5.23
2023-01-09T19:40:33.084Z,5.14
2023-01-09T20:00:33.170Z,5.13
2023-01-09T20:20:33.186Z,4.33
2023-01-09T20:40:33.213Z,4.05
2023-01-09T21:00:33.248Z,4
2023-01-09T21:20:36.736Z,4.01
2023-01-09T21:40:33.424Z,4.06
2023-01-09T22:00:33.433Z,4.1
2023-01-09T22:20:33.450Z,4.23
2023-01-09T22:40:33.448Z,4.11
2023-01-09T23:00:33.553Z,4.14
2023-01-09T23:20:33.490Z,4.16
2023-01-09T23:40:33.495Z,4.31
